createdAt,value
2023-01-09T00:00:40.360Z,1.80
2023-01-09T00:01:45.451Z,1.73
2023-01-09T00:02:47.363Z,1.33
2023-01-09T00:03:49.019Z,1.16
2023-01-09T00:04:50.585Z,1.13
2023-01-09T00:05:52.581Z,1.17
2023-01-09T00:06:54.438Z,1.18
2023-01-09T00:07:56.087Z,1.16
2023-01-09T00:08:57.911Z,1.16
2023-01-09T00:09:59.450Z,1.18
2023-01-09T00:11:01.084Z,1.19
2023-01-09T00:12:03.180Z,1.26
2023-01-09T00:13:04.742Z,1.29
2023-01-09T00:14:06.264Z,1.31
2023-01-09T00:15:08.655Z,1.30
2023-01-09T00:16:10.400Z,1.38
2023-01-09T00:17:11.929Z,1.46
2023-01-09T00:18:13.458Z,1.46
2023-01-09T00:19:15.017Z,1.54
2023-01-09T00:20:17.155Z,1.62
2023-01-09T00:21:19.243Z,1.70
2023-01-09T00:22:20.938Z,1.79
2023-01-09T00:23:22.515Z,1.85
2023-01-09T00:24:24.083Z,1.90
2023-01-09T00:25:25.655Z,1.94
2023-01-09T00:26:27.268Z,1.99
2023-01-09T00:27:32.873Z,2.01
2023-01-09T00:28:35.417Z,2.01
2023-01-09T00:29:36.995Z,2.04
2023-01-09T00:30:38.684Z,2.09
2023-01-09T00:31:40.445Z,2.11
2023-01-09T00:32:41.998Z,2.15
2023-01-09T00:33:50.424Z,2.24
2023-01-09T00:34:52.004Z,2.28
2023-01-09T00:35:53.575Z,2.32
2023-01-09T00:36:56.417Z,2.30
2023-01-09T00:37:57.999Z,2.36
2023-01-09T00:38:59.908Z,2.41
2023-01-09T00:40:01.435Z,2.39
2023-01-09T00:41:07.939Z,2.41
2023-01-09T00:42:17.133Z,2.45
2023-01-09T00:43:20.137Z,2.41
2023-01-09T00:44:35.623Z,2.41
2023-01-09T00:45:37.263Z,2.38
2023-01-09T00:46:42.971Z,2.38
2023-01-09T00:47:52.081Z,2.36
2023-01-09T00:48:53.760Z,2.36
2023-01-09T00:49:58.917Z,2.39
2023-01-09T00:51:00.663Z,2.35
2023-01-09T00:52:04.396Z,2.32
2023-01-09T00:53:10.943Z,2.13
2023-01-09T00:54:16.403Z,2.07
2023-01-09T00:55:18.271Z,2.05
2023-01-09T00:56:20.984Z,2.11
2023-01-09T00:57:22.674Z,2.15
2023-01-09T00:58:24.360Z,2.20
2023-01-09T00:59:28.266Z,2.12
2023-01-09T01:00:30.264Z,2.12
2023-01-09T01:01:32.260Z,2.11
2023-01-09T01:02:33.891Z,2.15
2023-01-09T01:03:35.700Z,2.20
2023-01-09T01:04:56.211Z,2.09
2023-01-09T01:06:16.347Z,2.16
2023-01-09T01:07:53.390Z,2.25
2023-01-09T01:08:56.017Z,2.29
2023-01-09T01:09:57.586Z,2.30
2023-01-09T01:11:03.406Z,2.37
2023-01-09T01:12:07.259Z,2.34
2023-01-09T01:13:09.593Z,2.33
2023-01-09T01:14:11.145Z,2.27
2023-01-09T01:15:13.591Z,2.29
2023-01-09T01:16:15.234Z,2.28
2023-01-09T01:17:16.758Z,2.30
2023-01-09T01:18:18.414Z,2.31
2023-01-09T01:19:19.982Z,2.31
2023-01-09T01:20:21.855Z,2.25
2023-01-09T01:21:23.416Z,2.09
2023-01-09T01:22:24.946Z,2.05
2023-01-09T01:23:26.728Z,2.06
2023-01-09T01:24:28.377Z,2.05
2023-01-09T01:25:29.958Z,2.10
2023-01-09T01:26:31.656Z,2.12
2023-01-09T01:27:33.342Z,2.14
2023-01-09T01:28:35.027Z,2.07
2023-01-09T01:29:36.651Z,2.08
2023-01-09T01:30:42.655Z,2.11
2023-01-09T01:31:44.252Z,2.17
2023-01-09T01:32:46.158Z,2.20
2023-01-09T01:33:47.733Z,2.25
2023-01-09T01:34:49.288Z,2.30
2023-01-09T01:35:50.873Z,2.33
2023-01-09T01:36:52.395Z,2.37
2023-01-09T01:37:53.956Z,2.31
2023-01-09T01:38:55.585Z,2.32
2023-01-09T01:39:57.422Z,2.34
2023-01-09T01:40:59.825Z,2.38
2023-01-09T01:42:03.985Z,2.33
2023-01-09T01:43:05.639Z,2.31
2023-01-09T01:44:45.586Z,2.33
2023-01-09T01:45:47.189Z,2.29
2023-01-09T01:46:48.793Z,2.20
2023-01-09T01:47:57.709Z,2.21
2023-01-09T01:49:12.032Z,2.24
2023-01-09T01:50:25.837Z,2.22
2023-01-09T01:51:30.872Z,2.13
2023-01-09T01:52:34.257Z,2.13
2023-01-09T01:53:46.057Z,2.12
2023-01-09T01:54:48.940Z,2.10
2023-01-09T01:55:59.407Z,1.83
2023-01-09T01:57:04.535Z,1.83
2023-01-09T01:58:09.993Z,1.88
2023-01-09T01:59:23.375Z,1.94
2023-01-09T02:00:30.831Z,1.86
2023-01-09T02:01:33.843Z,1.85
2023-01-09T02:02:35.573Z,1.90
2023-01-09T02:03:39.731Z,1.93
2023-01-09T02:04:41.445Z,1.98
2023-01-09T02:05:43.829Z,2.03
2023-01-09T02:06:48.454Z,1.96
2023-01-09T02:07:50.080Z,1.77
2023-01-09T02:08:51.655Z,1.79
2023-01-09T02:09:54.002Z,1.80
2023-01-09T02:10:56.455Z,1.81
2023-01-09T02:11:58.449Z,1.84
2023-01-09T02:13:00.935Z,1.91
2023-01-09T02:14:03.203Z,1.99
2023-01-09T02:15:09.900Z,2.00
2023-01-09T02:16:17.599Z,1.99
2023-01-09T02:17:31.399Z,1.98
2023-01-09T02:18:54.207Z,1.99
2023-01-09T02:20:20.297Z,2.00
2023-01-09T02:21:29.473Z,2.06
2023-01-09T02:23:03.485Z,2.07
2023-01-09T02:24:13.660Z,2.05
2023-01-09T02:25:48.366Z,2.11
2023-01-09T02:27:09.436Z,2.14
2023-01-09T02:28:22.914Z,2.17
2023-01-09T02:29:49.812Z,2.16
2023-01-09T02:31:08.012Z,2.11
2023-01-09T02:32:21.054Z,2.11
2023-01-09T02:33:50.737Z,2.17
2023-01-09T02:34:59.908Z,2.19
2023-01-09T02:36:16.690Z,2.22
2023-01-09T02:37:35.807Z,2.21
2023-01-09T02:38:48.724Z,2.19
2023-01-09T02:39:54.855Z,2.20
2023-01-09T02:41:05.364Z,2.21
2023-01-09T02:42:24.314Z,2.19
2023-01-09T02:43:27.030Z,2.08
2023-01-09T02:44:33.948Z,2.08
2023-01-09T02:45:35.492Z,2.08
2023-01-09T02:46:37.267Z,2.10
2023-01-09T02:47:40.758Z,2.14
2023-01-09T02:48:45.241Z,2.09
2023-01-09T02:49:53.675Z,2.13
2023-01-09T02:51:17.809Z,2.19
2023-01-09T02:52:41.275Z,2.17
2023-01-09T02:54:12.177Z,2.10
2023-01-09T02:55:17.841Z,1.97
2023-01-09T02:56:56.939Z,2.06
2023-01-09T02:58:10.283Z,1.93
2023-01-09T02:59:21.706Z,1.84
2023-01-09T03:00:35.442Z,1.75
2023-01-09T03:01:44.954Z,1.47
2023-01-09T03:02:54.009Z,1.34
2023-01-09T03:04:30.687Z,1.18
2023-01-09T03:05:47.633Z,1.16
2023-01-09T03:07:38.215Z,1.18
2023-01-09T03:08:45.485Z,1.18
2023-01-09T03:09:51.224Z,1.05
2023-01-09T03:10:52.729Z,1.01
2023-01-09T03:12:01.389Z,1.08
2023-01-09T03:13:03.599Z,1.08
2023-01-09T03:14:11.592Z,0.80
2023-01-09T03:15:15.353Z,0.64
2023-01-09T03:16:21.689Z,0.60
2023-01-09T03:17:29.960Z,0.42
2023-01-09T03:18:33.015Z,0.25
2023-01-09T03:19:35.959Z,0.19
2023-01-09T03:20:38.851Z,0.22
2023-01-09T03:21:42.187Z,0.35
2023-01-09T03:22:57.995Z,0.31
2023-01-09T03:24:02.152Z,0.36
2023-01-09T03:25:03.804Z,0.40
2023-01-09T03:26:10.262Z,0.32
2023-01-09T03:27:11.885Z,0.25
2023-01-09T03:28:28.025Z,0.15
2023-01-09T03:29:29.757Z,0.06
2023-01-09T03:30:33.761Z,0.14
2023-01-09T03:31:35.363Z,0.31
2023-01-09T03:32:36.973Z,0.40
2023-01-09T03:33:38.550Z,0.45
2023-01-09T03:34:40.103Z,0.54
2023-01-09T03:35:41.618Z,0.59
2023-01-09T03:36:43.251Z,0.61
2023-01-09T03:37:44.803Z,0.60
2023-01-09T03:38:46.399Z,0.70
2023-01-09T03:39:47.948Z,0.74
2023-01-09T03:40:49.495Z,0.83
2023-01-09T03:41:51.045Z,0.91
2023-01-09T03:42:52.648Z,0.97
2023-01-09T03:43:54.188Z,1.06
2023-01-09T03:44:55.712Z,1.11
2023-01-09T03:45:57.336Z,1.21
2023-01-09T03:46:58.947Z,1.31
2023-01-09T03:48:00.476Z,1.35
2023-01-09T03:49:02.012Z,1.37
2023-01-09T03:50:03.982Z,1.32
2023-01-09T03:51:05.734Z,1.32
2023-01-09T03:52:07.370Z,1.32
2023-01-09T03:53:08.959Z,1.16
2023-01-09T03:54:10.475Z,0.99
2023-01-09T03:55:13.305Z,1.02
2023-01-09T03:56:15.853Z,1.07
2023-01-09T03:57:17.792Z,1.14
2023-01-09T03:58:20.508Z,1.23
2023-01-09T03:59:22.154Z,1.23
2023-01-09T04:00:23.855Z,1.29
2023-01-09T04:01:25.720Z,1.36
2023-01-09T04:02:27.322Z,1.27
2023-01-09T04:03:28.962Z,1.10
2023-01-09T04:04:30.594Z,1.10
2023-01-09T04:05:32.151Z,0.97
2023-01-09T04:06:33.765Z,0.83
2023-01-09T04:07:35.380Z,0.71
2023-01-09T04:08:36.942Z,0.74
2023-01-09T04:09:38.466Z,0.62
2023-01-09T04:10:40.337Z,0.55
2023-01-09T04:11:41.858Z,0.51
2023-01-09T04:12:43.433Z,0.54
2023-01-09T04:13:45.225Z,0.63
2023-01-09T04:14:46.785Z,0.54
2023-01-09T04:15:48.559Z,0.24
2023-01-09T04:16:50.173Z,0.17
2023-01-09T04:17:51.772Z,0.12
2023-01-09T04:18:53.291Z,-0.17
2023-01-09T04:19:54.820Z,-0.29
2023-01-09T04:20:56.393Z,-0.23
2023-01-09T04:21:57.960Z,-0.14
2023-01-09T04:22:59.885Z,-0.15
2023-01-09T04:24:02.958Z,-0.15
2023-01-09T04:25:05.130Z,-0.21
2023-01-09T04:26:07.932Z,-0.16
2023-01-09T04:27:09.486Z,-0.21
2023-01-09T04:28:11.155Z,-0.40
2023-01-09T04:29:12.678Z,-0.39
2023-01-09T04:30:14.849Z,-0.37
2023-01-09T04:31:16.866Z,-0.42
2023-01-09T04:32:18.504Z,-0.40
2023-01-09T04:33:20.087Z,-0.39
2023-01-09T04:34:25.666Z,-0.40
2023-01-09T04:35:27.181Z,-0.41
2023-01-09T04:36:28.856Z,-0.41
2023-01-09T04:37:30.424Z,-0.45
2023-01-09T04:38:31.979Z,-0.36
2023-01-09T04:39:33.600Z,-0.37
2023-01-09T04:40:35.157Z,-0.47
2023-01-09T04:41:51.959Z,-0.44
2023-01-09T04:42:53.488Z,-0.54
2023-01-09T04:43:55.064Z,-0.73
2023-01-09T04:44:56.629Z,-0.77
2023-01-09T04:45:58.251Z,-0.74
2023-01-09T04:46:59.864Z,-0.86
2023-01-09T04:48:01.412Z,-0.83
2023-01-09T04:49:03.098Z,-0.75
2023-01-09T04:50:05.094Z,-0.58
2023-01-09T04:51:06.615Z,-0.43
2023-01-09T04:52:08.119Z,-0.31
2023-01-09T04:53:09.751Z,-0.41
2023-01-09T04:54:11.616Z,-0.45
2023-01-09T04:55:13.216Z,-0.37
2023-01-09T04:56:14.799Z,-0.37
2023-01-09T04:57:16.631Z,-0.49
2023-01-09T04:58:18.185Z,-0.54
2023-01-09T04:59:19.785Z,-0.64
2023-01-09T05:00:21.405Z,-0.73
2023-01-09T05:01:23.776Z,-0.83
2023-01-09T05:02:25.422Z,-0.71
2023-01-09T05:03:26.968Z,-0.74
2023-01-09T05:04:28.586Z,-0.71
2023-01-09T05:05:30.208Z,-0.60
2023-01-09T05:06:31.890Z,-0.49
2023-01-09T05:07:34.253Z,-0.37
2023-01-09T05:08:35.851Z,-0.34
2023-01-09T05:09:37.385Z,-0.41
2023-01-09T05:10:38.902Z,-0.43
2023-01-09T05:11:40.603Z,-0.49
2023-01-09T05:12:42.249Z,-0.69
2023-01-09T05:13:43.823Z,-0.80
2023-01-09T05:14:45.509Z,-0.65
2023-01-09T05:15:47.052Z,-0.50
2023-01-09T05:16:48.786Z,-0.44
2023-01-09T05:17:53.860Z,-0.33
2023-01-09T05:18:58.243Z,-0.22
2023-01-09T05:20:01.166Z,-0.16
2023-01-09T05:21:03.231Z,-0.02
2023-01-09T05:22:05.241Z,0.05
2023-01-09T05:23:06.768Z,0.09
2023-01-09T05:24:08.638Z,0.17
2023-01-09T05:25:10.377Z,0.11
2023-01-09T05:26:11.910Z,0.15
2023-01-09T05:27:13.536Z,0.23
2023-01-09T05:28:15.146Z,0.25
2023-01-09T05:29:16.708Z,-0.12
2023-01-09T05:30:18.596Z,-0.37
2023-01-09T05:31:20.711Z,-0.40
2023-01-09T05:32:22.495Z,-0.51
2023-01-09T05:33:24.311Z,-0.52
2023-01-09T05:34:26.231Z,-0.52
2023-01-09T05:35:27.987Z,-0.46
2023-01-09T05:36:29.814Z,-0.45
2023-01-09T05:37:31.469Z,-0.38
2023-01-09T05:38:33.021Z,-0.34
2023-01-09T05:39:34.577Z,-0.51
2023-01-09T05:40:40.369Z,-0.60
2023-01-09T05:41:42.212Z,-0.63
2023-01-09T05:42:44.736Z,-0.76
2023-01-09T05:43:46.339Z,-0.87
2023-01-09T05:44:47.914Z,-0.91
2023-01-09T05:45:49.546Z,-0.94
2023-01-09T05:46:51.308Z,-0.96
2023-01-09T05:47:53.048Z,-0.94
2023-01-09T05:48:54.615Z,-0.93
2023-01-09T05:49:59.054Z,-0.90
2023-01-09T05:51:00.639Z,-0.91
2023-01-09T05:52:02.164Z,-0.97
2023-01-09T05:53:03.737Z,-0.94
2023-01-09T05:54:07.454Z,-0.97
2023-01-09T05:55:11.975Z,-0.95
2023-01-09T05:56:13.667Z,-0.91
2023-01-09T05:57:15.320Z,-0.90
2023-01-09T05:58:16.868Z,-0.91
2023-01-09T05:59:18.590Z,-0.89
2023-01-09T06:00:20.317Z,-0.95
2023-01-09T06:01:23.722Z,-1.05
2023-01-09T06:02:25.756Z,-1.10
2023-01-09T06:03:27.540Z,-1.10
2023-01-09T06:04:30.060Z,-1.10
2023-01-09T06:05:31.767Z,-1.17
2023-01-09T06:06:33.328Z,-1.23
2023-01-09T06:07:39.532Z,-1.24
2023-01-09T06:08:41.195Z,-1.26
2023-01-09T06:09:42.718Z,-1.28
2023-01-09T06:10:46.071Z,-1.28
2023-01-09T06:11:47.670Z,-1.27
2023-01-09T06:12:50.992Z,-1.33
2023-01-09T06:13:52.580Z,-1.36
2023-01-09T06:14:54.193Z,-1.40
2023-01-09T06:15:55.890Z,-1.28
2023-01-09T06:16:57.436Z,-1.17
2023-01-09T06:17:59.001Z,-1.12
2023-01-09T06:19:00.563Z,-1.03
2023-01-09T06:20:02.245Z,-0.90
2023-01-09T06:21:04.033Z,-0.79
2023-01-09T06:22:05.659Z,-0.67
2023-01-09T06:23:07.235Z,-0.50
2023-01-09T06:24:08.973Z,-0.35
2023-01-09T06:25:10.936Z,-0.26
2023-01-09T06:26:12.543Z,-0.18
2023-01-09T06:27:14.255Z,-0.14
2023-01-09T06:28:15.776Z,-0.06
2023-01-09T06:29:17.524Z,0.02
2023-01-09T06:30:19.953Z,0.11
2023-01-09T06:31:25.504Z,0.15
2023-01-09T06:32:27.112Z,0.19
2023-01-09T06:33:28.723Z,0.26
2023-01-09T06:34:30.327Z,0.30
2023-01-09T06:35:31.917Z,0.35
2023-01-09T06:36:33.536Z,0.37
2023-01-09T06:37:35.165Z,0.42
2023-01-09T06:38:36.746Z,0.33
2023-01-09T06:39:38.297Z,0.30
2023-01-09T06:40:39.840Z,0.41
2023-01-09T06:41:41.642Z,0.52
2023-01-09T06:42:47.542Z,0.61
2023-01-09T06:43:49.106Z,0.72
2023-01-09T06:44:50.674Z,0.80
2023-01-09T06:45:52.480Z,0.78
2023-01-09T06:46:54.020Z,0.83
2023-01-09T06:47:55.667Z,0.77
2023-01-09T06:48:57.308Z,0.87
2023-01-09T06:49:58.865Z,0.98
2023-01-09T06:51:00.438Z,1.11
2023-01-09T06:52:05.694Z,1.21
2023-01-09T06:53:08.064Z,1.33
2023-01-09T06:54:09.860Z,1.44
2023-01-09T06:55:11.465Z,1.50
2023-01-09T06:56:13.069Z,1.61
2023-01-09T06:57:16.420Z,1.75
2023-01-09T06:58:18.307Z,1.86
2023-01-09T06:59:19.916Z,1.94
2023-01-09T07:00:21.954Z,2.01
2023-01-09T07:01:23.780Z,2.11
2023-01-09T07:02:25.540Z,2.18
2023-01-09T07:03:27.088Z,2.26
2023-01-09T07:04:28.707Z,2.15
2023-01-09T07:05:31.303Z,2.14
2023-01-09T07:06:33.253Z,2.21
2023-01-09T07:07:34.988Z,2.17
2023-01-09T07:08:36.530Z,2.18
2023-01-09T07:09:38.157Z,2.29
2023-01-09T07:10:39.661Z,2.27
2023-01-09T07:11:41.599Z,2.04
2023-01-09T07:12:43.224Z,1.99
2023-01-09T07:13:44.809Z,2.05
2023-01-09T07:14:46.392Z,2.11
2023-01-09T07:15:49.735Z,2.19
2023-01-09T07:16:51.488Z,2.30
2023-01-09T07:17:54.260Z,2.32
2023-01-09T07:18:55.928Z,2.11
2023-01-09T07:19:57.576Z,1.94
2023-01-09T07:20:59.208Z,1.79
2023-01-09T07:22:00.757Z,1.69
2023-01-09T07:23:02.431Z,1.88
2023-01-09T07:24:04.077Z,1.92
2023-01-09T07:25:05.926Z,1.88
2023-01-09T07:26:07.502Z,2.01
2023-01-09T07:27:09.147Z,2.10
2023-01-09T07:28:11.621Z,2.17
2023-01-09T07:29:13.316Z,2.33
2023-01-09T07:30:15.254Z,2.39
2023-01-09T07:31:16.892Z,2.47
2023-01-09T07:32:18.612Z,2.48
2023-01-09T07:33:20.187Z,2.40
2023-01-09T07:34:21.732Z,2.43
2023-01-09T07:35:23.280Z,2.59
2023-01-09T07:36:24.999Z,2.78
2023-01-09T07:37:26.586Z,2.93
2023-01-09T07:38:28.223Z,2.97
2023-01-09T07:39:29.898Z,3.01
2023-01-09T07:40:31.504Z,2.96
2023-01-09T07:41:33.052Z,3.07
2023-01-09T07:42:34.589Z,3.30
2023-01-09T07:43:38.006Z,3.53
2023-01-09T07:44:39.646Z,3.70
2023-01-09T07:45:41.206Z,3.80
2023-01-09T07:46:42.864Z,3.94
2023-01-09T07:47:44.441Z,4.15
2023-01-09T07:48:46.004Z,4.29
2023-01-09T07:49:47.605Z,4.44
2023-01-09T07:50:49.164Z,4.55
2023-01-09T07:51:50.781Z,4.60
2023-01-09T07:52:52.382Z,4.46
2023-01-09T07:53:54.182Z,4.54
2023-01-09T07:54:55.742Z,4.64
2023-01-09T07:55:57.360Z,4.61
2023-01-09T07:56:58.945Z,4.61
2023-01-09T07:58:00.467Z,4.62
2023-01-09T07:59:02.023Z,4.65
2023-01-09T08:00:06.842Z,4.75
2023-01-09T08:01:08.404Z,4.86
2023-01-09T08:02:10.223Z,4.89
2023-01-09T08:03:11.837Z,4.90
2023-01-09T08:04:13.511Z,5.00
2023-01-09T08:05:17.041Z,5.08
2023-01-09T08:06:18.663Z,5.03
2023-01-09T08:07:20.326Z,4.93
2023-01-09T08:08:22.807Z,4.94
2023-01-09T08:09:24.438Z,4.98
2023-01-09T08:10:26.396Z,4.97
2023-01-09T08:11:28.244Z,5.09
2023-01-09T08:12:29.844Z,5.19
2023-01-09T08:13:31.500Z,4.91
2023-01-09T08:14:33.139Z,4.90
2023-01-09T08:15:34.928Z,4.92
2023-01-09T08:16:36.658Z,4.69
2023-01-09T08:17:42.102Z,4.65
2023-01-09T08:18:44.269Z,4.75
2023-01-09T08:19:45.785Z,4.77
2023-01-09T08:20:50.497Z,4.70
2023-01-09T08:21:52.002Z,4.66
2023-01-09T08:22:54.397Z,4.71
2023-01-09T08:23:55.939Z,4.73
2023-01-09T08:24:57.559Z,4.52
2023-01-09T08:25:59.903Z,4.58
2023-01-09T08:27:01.505Z,4.77
2023-01-09T08:28:03.036Z,4.61
2023-01-09T08:29:04.688Z,4.44
2023-01-09T08:30:07.075Z,4.20
2023-01-09T08:31:08.705Z,4.25
2023-01-09T08:32:10.303Z,4.35
2023-01-09T08:33:11.838Z,4.61
2023-01-09T08:34:13.422Z,4.84
2023-01-09T08:35:14.997Z,4.86
2023-01-09T08:36:16.680Z,4.81
2023-01-09T08:37:18.261Z,4.96
2023-01-09T08:38:21.978Z,5.10
2023-01-09T08:39:23.500Z,5.28
2023-01-09T08:40:25.208Z,5.50
2023-01-09T08:41:45.310Z,5.68
2023-01-09T08:43:25.085Z,5.76
2023-01-09T08:44:45.137Z,5.88
2023-01-09T08:46:06.341Z,5.73
2023-01-09T08:47:08.313Z,5.82
2023-01-09T08:48:10.512Z,5.64
2023-01-09T08:49:12.063Z,5.70
2023-01-09T08:50:13.888Z,5.75
2023-01-09T08:51:15.513Z,5.83
2023-01-09T08:52:17.061Z,6.03
2023-01-09T08:53:18.623Z,6.19
2023-01-09T08:54:20.178Z,6.41
2023-01-09T08:55:21.793Z,6.64
2023-01-09T08:56:23.297Z,6.79
2023-01-09T08:57:25.196Z,6.94
2023-01-09T08:58:26.979Z,7.03
2023-01-09T08:59:28.635Z,7.03
2023-01-09T09:00:30.274Z,7.18
2023-01-09T09:01:32.462Z,7.20
2023-01-09T09:02:34.141Z,7.06
2023-01-09T09:03:35.735Z,7.13
2023-01-09T09:04:37.287Z,7.15
2023-01-09T09:05:38.824Z,7.06
2023-01-09T09:06:40.555Z,7.14
2023-01-09T09:07:42.903Z,7.28
2023-01-09T09:08:44.576Z,7.40
2023-01-09T09:09:46.128Z,7.32
2023-01-09T09:10:47.704Z,7.40
2023-01-09T09:11:49.264Z,7.42
2023-01-09T09:12:52.717Z,7.54
2023-01-09T09:13:54.351Z,7.65
2023-01-09T09:15:16.373Z,7.77
2023-01-09T09:16:17.974Z,7.68
2023-01-09T09:17:19.608Z,7.59
2023-01-09T09:18:21.227Z,7.63
2023-01-09T09:19:22.911Z,7.73
2023-01-09T09:20:26.911Z,7.87
2023-01-09T09:21:28.430Z,8.03
2023-01-09T09:22:30.924Z,8.16
2023-01-09T09:23:32.512Z,7.91
2023-01-09T09:24:34.102Z,7.81
2023-01-09T09:25:38.372Z,7.71
2023-01-09T09:26:40.109Z,7.60
2023-01-09T09:27:42.230Z,7.58
2023-01-09T09:28:43.802Z,7.61
2023-01-09T09:29:45.487Z,7.59
2023-01-09T09:30:47.095Z,7.67
2023-01-09T09:31:48.742Z,7.81
2023-01-09T09:32:50.351Z,7.93
2023-01-09T09:33:51.919Z,8.02
2023-01-09T09:34:53.625Z,8.11
2023-01-09T09:35:55.211Z,7.90
2023-01-09T09:36:56.809Z,7.92
2023-01-09T09:38:05.381Z,7.89
2023-01-09T09:39:08.442Z,8.00
2023-01-09T09:40:20.163Z,7.99
2023-01-09T09:41:58.780Z,7.81
2023-01-09T09:43:25.133Z,7.97
2023-01-09T09:44:53.963Z,8.24
2023-01-09T09:46:20.247Z,8.45
2023-01-09T09:47:43.312Z,8.68
2023-01-09T09:49:07.159Z,8.92
2023-01-09T09:50:40.159Z,9.16
2023-01-09T09:51:56.448Z,9.41
2023-01-09T09:53:09.944Z,9.53
2023-01-09T09:54:42.735Z,9.56
2023-01-09T09:55:48.304Z,9.61
2023-01-09T09:56:53.088Z,9.59
2023-01-09T09:57:56.477Z,9.60
2023-01-09T09:59:30.936Z,9.47
2023-01-09T10:00:33.196Z,9.48
2023-01-09T10:01:42.030Z,9.53
2023-01-09T10:02:52.202Z,9.59
2023-01-09T10:03:58.320Z,9.62
2023-01-09T10:05:22.224Z,9.64
2023-01-09T10:06:52.772Z,9.67
2023-01-09T10:08:01.315Z,9.68
2023-01-09T10:09:29.211Z,9.71
2023-01-09T10:10:44.063Z,9.87
2023-01-09T10:11:51.370Z,10.06
2023-01-09T10:12:58.855Z,10.23
2023-01-09T10:14:16.013Z,10.36
2023-01-09T10:15:36.557Z,10.52
2023-01-09T10:17:12.141Z,10.62
2023-01-09T10:18:32.939Z,10.66
2023-01-09T10:20:02.868Z,10.71
2023-01-09T10:21:23.915Z,10.74
2023-01-09T10:22:40.782Z,10.75
2023-01-09T10:24:15.806Z,10.84
2023-01-09T10:25:42.740Z,10.90
2023-01-09T10:26:50.968Z,10.93
2023-01-09T10:28:07.260Z,10.99
2023-01-09T10:29:19.895Z,11.08
2023-01-09T10:30:32.084Z,11.16
2023-01-09T10:32:15.136Z,11.11
2023-01-09T10:33:35.068Z,11.17
2023-01-09T10:34:57.801Z,11.01
2023-01-09T10:36:10.583Z,11.01
2023-01-09T10:37:15.675Z,11.03
2023-01-09T10:38:22.523Z,10.96
2023-01-09T10:39:41.131Z,10.91
2023-01-09T10:40:50.940Z,10.86
2023-01-09T10:42:03.137Z,10.81
2023-01-09T10:43:15.180Z,10.86
2023-01-09T10:44:24.320Z,10.81
2023-01-09T10:45:42.587Z,10.82
2023-01-09T10:46:53.160Z,10.88
2023-01-09T10:48:04.886Z,10.86
2023-01-09T10:49:13.581Z,10.78
2023-01-09T10:50:18.365Z,10.83
2023-01-09T10:51:24.168Z,10.94
2023-01-09T10:52:33.360Z,11.06
2023-01-09T10:53:39.430Z,11.11
2023-01-09T10:54:51.004Z,11.12
2023-01-09T10:55:56.098Z,11.09
2023-01-09T10:57:02.399Z,11.07
2023-01-09T10:58:12.114Z,11.07
2023-01-09T10:59:13.677Z,11.07
2023-01-09T11:00:18.782Z,11.09
2023-01-09T11:01:33.416Z,11.13
2023-01-09T11:02:36.099Z,11.10
2023-01-09T11:03:39.035Z,11.15
2023-01-09T11:04:40.733Z,11.13
2023-01-09T11:05:42.724Z,11.14
2023-01-09T11:06:49.700Z,11.16
2023-01-09T11:07:59.504Z,11.20
2023-01-09T11:09:01.967Z,11.17
2023-01-09T11:10:11.781Z,11.25
2023-01-09T11:11:31.874Z,11.35
2023-01-09T11:12:35.193Z,11.43
2023-01-09T11:13:41.180Z,11.37
2023-01-09T11:14:42.766Z,11.26
2023-01-09T11:15:45.240Z,11.20
2023-01-09T11:17:01.407Z,11.29
2023-01-09T11:18:26.210Z,11.28
2023-01-09T11:19:28.522Z,11.31
2023-01-09T11:20:30.393Z,11.36
2023-01-09T11:21:35.698Z,11.30
2023-01-09T11:22:51.269Z,11.23
2023-01-09T11:23:53.624Z,11.26
2023-01-09T11:25:03.027Z,11.39
2023-01-09T11:26:04.732Z,11.39
2023-01-09T11:27:23.588Z,11.41
2023-01-09T11:28:25.732Z,11.43
2023-01-09T11:29:27.580Z,11.51
2023-01-09T11:30:37.026Z,11.50
2023-01-09T11:31:42.321Z,11.51
2023-01-09T11:32:46.195Z,11.60
2023-01-09T11:33:50.253Z,11.66
2023-01-09T11:34:51.908Z,11.67
2023-01-09T11:36:14.480Z,11.73
2023-01-09T11:37:26.166Z,11.76
2023-01-09T11:38:28.294Z,11.68
2023-01-09T11:39:34.789Z,11.65
2023-01-09T11:41:12.005Z,11.69
2023-01-09T11:42:42.079Z,11.70
2023-01-09T11:43:48.139Z,11.63
2023-01-09T11:44:58.903Z,11.58
2023-01-09T11:46:06.621Z,11.67
2023-01-09T11:47:35.928Z,11.58
2023-01-09T11:48:59.433Z,11.56
2023-01-09T11:50:20.890Z,11.60
2023-01-09T11:51:33.851Z,11.57
2023-01-09T11:52:35.425Z,11.52
2023-01-09T11:54:12.804Z,11.53
2023-01-09T11:55:19.478Z,11.53
2023-01-09T11:56:21.224Z,11.47
2023-01-09T11:57:24.965Z,11.47
2023-01-09T11:58:34.037Z,11.46
2023-01-09T11:59:35.658Z,11.51
2023-01-09T12:01:14.388Z,11.59
2023-01-09T12:02:53.210Z,11.61
2023-01-09T12:04:18.034Z,11.45
2023-01-09T12:05:51.007Z,11.43
2023-01-09T12:07:16.599Z,11.46
2023-01-09T12:08:42.188Z,11.54
2023-01-09T12:09:50.098Z,11.57
2023-01-09T12:11:12.434Z,11.60
2023-01-09T12:12:41.703Z,11.63
2023-01-09T12:14:18.225Z,11.51
2023-01-09T12:15:19.819Z,11.44
2023-01-09T12:16:21.425Z,11.40
2023-01-09T12:17:35.589Z,11.29
2023-01-09T12:18:57.543Z,11.24
2023-01-09T12:20:14.206Z,11.22
2023-01-09T12:21:35.211Z,11.23
2023-01-09T12:22:58.636Z,11.25
2023-01-09T12:24:18.569Z,11.30
2023-01-09T12:25:44.504Z,11.32
2023-01-09T12:27:24.352Z,11.29
2023-01-09T12:28:54.802Z,11.28
2023-01-09T12:30:02.121Z,11.23
2023-01-09T12:31:43.284Z,11.18
2023-01-09T12:33:00.505Z,11.23
2023-01-09T12:34:27.639Z,11.21
2023-01-09T12:35:45.047Z,11.20
2023-01-09T12:37:23.717Z,11.12
2023-01-09T12:38:54.520Z,11.07
2023-01-09T12:40:41.403Z,11.07
2023-01-09T12:42:04.639Z,11.08
2023-01-09T12:43:12.186Z,11.10
2023-01-09T12:44:34.555Z,11.13
2023-01-09T12:45:40.232Z,11.04
2023-01-09T12:47:06.815Z,11.01
2023-01-09T12:48:44.996Z,10.96
2023-01-09T12:50:22.301Z,10.91
2023-01-09T12:51:41.980Z,10.90
2023-01-09T12:53:12.562Z,10.81
2023-01-09T12:54:32.626Z,10.83
2023-01-09T12:55:39.821Z,10.78
2023-01-09T12:56:48.806Z,10.73
2023-01-09T12:57:55.096Z,10.76
2023-01-09T12:59:30.783Z,10.76
2023-01-09T13:00:42.973Z,10.78
2023-01-09T13:01:50.051Z,10.76
2023-01-09T13:03:11.923Z,10.77
2023-01-09T13:04:23.261Z,10.73
2023-01-09T13:05:49.105Z,10.66
2023-01-09T13:06:58.429Z,10.66
2023-01-09T13:08:07.861Z,10.64
2023-01-09T13:09:26.257Z,10.61
2023-01-09T13:10:33.886Z,10.57
2023-01-09T13:11:41.663Z,10.57
2023-01-09T13:12:44.918Z,10.56
2023-01-09T13:13:48.699Z,10.56
2023-01-09T13:15:27.317Z,10.57
2023-01-09T13:16:42.429Z,10.55
2023-01-09T13:17:50.411Z,10.55
2023-01-09T13:19:03.596Z,10.52
2023-01-09T13:20:21.512Z,10.55
2023-01-09T13:21:23.372Z,10.54
2023-01-09T13:22:28.231Z,10.53
2023-01-09T13:24:03.979Z,10.54
2023-01-09T13:25:19.209Z,10.56
2023-01-09T13:26:32.783Z,10.57
2023-01-09T13:27:41.070Z,10.57
2023-01-09T13:28:47.224Z,10.55
2023-01-09T13:29:55.925Z,10.58
2023-01-09T13:31:28.261Z,10.59
2023-01-09T13:33:05.508Z,10.57
2023-01-09T13:34:21.888Z,10.64
2023-01-09T13:35:24.271Z,10.63
2023-01-09T13:36:29.109Z,10.59
2023-01-09T13:37:36.463Z,10.60
2023-01-09T13:38:38.796Z,10.61
2023-01-09T13:39:40.363Z,10.60
2023-01-09T13:40:41.980Z,10.60
2023-01-09T13:42:10.316Z,10.60
2023-01-09T13:43:14.718Z,10.57
2023-01-09T13:44:24.081Z,10.56
2023-01-09T13:45:28.413Z,10.54
2023-01-09T13:46:44.408Z,10.54
2023-01-09T13:47:46.498Z,10.53
2023-01-09T13:48:48.352Z,10.48
2023-01-09T13:49:59.309Z,10.52
2023-01-09T13:51:36.596Z,10.50
2023-01-09T13:52:40.724Z,10.46
2023-01-09T13:53:44.017Z,10.47
2023-01-09T13:54:51.240Z,10.48
2023-01-09T13:55:59.419Z,10.49
2023-01-09T13:57:19.505Z,10.46
2023-01-09T13:58:22.841Z,10.43
2023-01-09T13:59:28.622Z,10.44
2023-01-09T14:00:36.254Z,10.44
2023-01-09T14:01:42.596Z,10.42
2023-01-09T14:02:46.548Z,10.39
2023-01-09T14:04:10.558Z,10.34
2023-01-09T14:05:24.685Z,10.35
2023-01-09T14:06:28.210Z,10.33
2023-01-09T14:07:34.516Z,10.31
2023-01-09T14:08:36.615Z,10.30
2023-01-09T14:09:46.207Z,10.38
2023-01-09T14:10:51.668Z,10.33
2023-01-09T14:12:05.184Z,10.31
2023-01-09T14:13:14.236Z,10.29
2023-01-09T14:14:28.906Z,10.31
2023-01-09T14:15:33.502Z,10.27
2023-01-09T14:16:36.866Z,10.26
2023-01-09T14:17:38.840Z,10.24
2023-01-09T14:18:50.689Z,10.20
2023-01-09T14:19:58.213Z,10.20
2023-01-09T14:21:02.948Z,10.24
2023-01-09T14:22:06.541Z,10.27
2023-01-09T14:23:45.642Z,10.33
2023-01-09T14:24:42.642Z,10.19
2023-01-09T14:25:44.843Z,10.29
2023-01-09T14:26:49.108Z,10.21
2023-01-09T14:27:59.799Z,10.20
2023-01-09T14:29:29.426Z,10.16
2023-01-09T14:30:32.656Z,10.15
2023-01-09T14:31:34.209Z,10.15
2023-01-09T14:32:38.850Z,10.05
2023-01-09T14:33:40.717Z,10.02
2023-01-09T14:34:43.496Z,9.95
2023-01-09T14:35:59.114Z,9.87
2023-01-09T14:37:02.571Z,9.83
2023-01-09T14:38:30.045Z,9.79
2023-01-09T14:39:32.696Z,9.74
2023-01-09T14:40:35.982Z,9.76